createdAt,value
2019-04-30T00:02:59.739Z,39.20
2019-04-30T00:07:05.635Z,38.67
2019-04-30T00:11:10.941Z,39.67
2019-04-30T00:15:19.524Z,39.67
2019-04-30T00:19:22.182Z,40.00
2019-04-30T00:23:30.566Z,38.30
2019-04-30T00:27:32.261Z,39.83
2019-04-30T00:31:36.483Z,39.30
2019-04-30T00:35:40.717Z,40.33
2019-04-30T00:39:51.042Z,39.57
2019-04-30T00:43:51.066Z,38.33
2019-04-30T00:47:55.966Z,36.93
2019-04-30T00:52:00.273Z,37.73
2019-04-30T00:56:05.733Z,37.93
2019-04-30T01:00:11.888Z,34.43
2019-04-30T01:04:28.046Z,35.27
2019-04-30T01:08:30.274Z,33.53
2019-04-30T01:12:41.194Z,37.70
2019-04-30T01:16:40.367Z,37.90
2019-04-30T01:20:44.698Z,38.97
2019-04-30T01:24:49.630Z,35.03
2019-04-30T01:29:00.601Z,39.23
2019-04-30T01:33:01.080Z,39.57
2019-04-30T01:37:05.462Z,43.40
2019-04-30T01:41:09.694Z,42.03
2019-04-30T01:45:14.303Z,44.60
2019-04-30T01:49:20.214Z,43.17
2019-04-30T01:53:24.359Z,44.47
2019-04-30T01:57:39.025Z,42.27
2019-04-30T02:01:45.510Z,41.77
2019-04-30T02:05:49.944Z,38.60
2019-04-30T02:09:54.274Z,39.37
2019-04-30T02:13:59.134Z,41.00
2019-04-30T02:18:03.499Z,39.57
2019-04-30T02:22:09.430Z,39.43
2019-04-30T02:26:13.733Z,38.73
2019-04-30T02:30:20.751Z,40.93
2019-04-30T02:34:49.772Z,39.07
2019-04-30T02:38:54.933Z,39.50
2019-04-30T02:43:01.872Z,39.57
2019-04-30T02:47:10.011Z,37.90
2019-04-30T02:51:15.084Z,41.03
2019-04-30T02:55:25.083Z,40.37
2019-04-30T02:59:30.086Z,39.73
2019-04-30T03:03:34.614Z,39.23
2019-04-30T03:07:40.765Z,40.87
2019-04-30T03:11:44.807Z,40.97
2019-04-30T03:15:49.476Z,40.20
2019-04-30T03:20:00.260Z,38.40
2019-04-30T03:24:04.393Z,39.23
2019-04-30T03:28:09.780Z,38.87
2019-04-30T03:32:14.587Z,36.50
2019-04-30T03:36:21.656Z,37.03
2019-04-30T03:40:24.792Z,35.37
2019-04-30T03:44:31.607Z,37.57
2019-04-30T03:48:34.875Z,38.30
2019-04-30T03:52:39.475Z,38.30
2019-04-30T03:56:44.335Z,36.37
2019-04-30T04:01:19.845Z,36.57
2019-04-30T04:05:59.509Z,38.03
2019-04-30T04:10:19.555Z,39.50
2019-04-30T04:14:23.931Z,39.17
2019-04-30T04:18:30.209Z,40.27
2019-04-30T04:22:34.107Z,38.53
2019-04-30T04:26:43.365Z,39.53
2019-04-30T04:30:44.152Z,37.40
2019-04-30T04:34:50.585Z,36.30
2019-04-30T04:38:54.293Z,36.10
2019-04-30T04:43:00.384Z,36.27
2019-04-30T04:47:04.490Z,34.97
2019-04-30T04:51:19.816Z,35.70
2019-04-30T04:55:14.884Z,36.90
2019-04-30T04:59:20.078Z,38.60
2019-04-30T05:03:36.172Z,40.87
2019-04-30T05:07:40.395Z,40.50
2019-04-30T05:11:44.611Z,39.40
2019-04-30T05:15:51.290Z,39.77
2019-04-30T05:19:54.731Z,39.33
2019-04-30T05:23:59.115Z,38.93
2019-04-30T05:28:03.398Z,38.70
2019-04-30T05:32:09.481Z,37.27
2019-04-30T05:36:13.562Z,36.30
2019-04-30T05:40:18.882Z,36.60
2019-04-30T05:44:23.314Z,35.07
2019-04-30T05:48:28.628Z,36.33
2019-04-30T05:52:33.155Z,34.97
2019-04-30T05:56:39.525Z,35.27
2019-04-30T06:00:45.275Z,34.47
2019-04-30T06:04:49.527Z,33.97
2019-04-30T06:09:06.641Z,35.07
2019-04-30T06:13:26.127Z,32.13
2019-04-30T06:17:30.488Z,31.53
2019-04-30T06:21:34.745Z,31.53
2019-04-30T06:25:55.691Z,33.17
2019-04-30T06:29:45.682Z,32.20
2019-04-30T06:33:50.041Z,32.27
2019-04-30T06:37:54.275Z,32.10
2019-04-30T06:42:06.508Z,30.87
2019-04-30T06:46:05.360Z,30.57
2019-04-30T06:50:10.484Z,29.70
2019-04-30T06:54:14.713Z,30.37
2019-04-30T06:58:20.486Z,29.30
2019-04-30T07:02:24.830Z,29.73
2019-04-30T07:06:32.235Z,27.53
2019-04-30T07:10:36.697Z,29.87
2019-04-30T07:14:41.979Z,28.10
2019-04-30T07:18:46.408Z,28.43
2019-04-30T07:22:59.097Z,29.13
2019-04-30T07:27:01.048Z,29.03
2019-04-30T07:31:11.695Z,28.40
2019-04-30T07:35:09.467Z,29.60
2019-04-30T07:39:14.030Z,28.33
2019-04-30T07:43:18.985Z,29.80
2019-04-30T07:47:23.366Z,29.10
2019-04-30T07:51:30.992Z,28.40
2019-04-30T07:55:33.463Z,29.00
2019-04-30T07:59:39.538Z,27.90
2019-04-30T08:03:59.030Z,27.80
2019-04-30T08:08:20.137Z,29.10
2019-04-30T08:12:10.456Z,28.93
2019-04-30T08:16:15.353Z,29.47
2019-04-30T08:20:19.874Z,30.03
2019-04-30T08:24:24.210Z,28.43
2019-04-30T08:28:30.332Z,28.10
2019-04-30T08:32:34.304Z,27.80
2019-04-30T08:36:38.704Z,28.57
2019-04-30T08:40:53.417Z,29.97
2019-04-30T08:44:49.045Z,30.20
2019-04-30T08:48:53.786Z,32.73
2019-04-30T08:52:59.789Z,32.13
2019-04-30T08:57:04.006Z,31.30
2019-04-30T09:01:08.825Z,36.10
2019-04-30T09:05:22.422Z,37.47
2019-04-30T09:09:26.654Z,36.97
2019-04-30T09:13:30.952Z,36.97
2019-04-30T09:17:35.198Z,37.40
2019-04-30T09:21:40.209Z,37.43
2019-04-30T09:25:44.571Z,36.33
2019-04-30T09:29:49.227Z,36.90
2019-04-30T09:33:53.618Z,37.57
2019-04-30T09:38:01.413Z,36.13
2019-04-30T09:42:03.931Z,37.37
2019-04-30T09:46:17.976Z,36.20
2019-04-30T09:50:15.143Z,36.13
2019-04-30T09:54:20.206Z,35.97
2019-04-30T09:58:24.923Z,34.00
2019-04-30T10:02:29.200Z,33.77
2019-04-30T10:06:39.698Z,32.80
2019-04-30T10:10:48.600Z,28.63
2019-04-30T10:14:52.542Z,29.37
2019-04-30T10:18:56.803Z,28.27
2019-04-30T10:23:01.015Z,27.33
2019-04-30T10:27:07.039Z,24.83
2019-04-30T10:31:11.423Z,26.83
2019-04-30T10:35:15.610Z,26.53
2019-04-30T10:39:21.711Z,26.03
2019-04-30T10:43:25.935Z,25.50
2019-04-30T10:47:32.466Z,25.03
2019-04-30T10:51:36.018Z,25.23
2019-04-30T10:55:40.243Z,24.57
2019-04-30T10:59:44.460Z,24.80
2019-04-30T11:03:48.687Z,23.73
2019-04-30T11:07:52.908Z,24.00
2019-04-30T11:11:57.127Z,25.70
2019-04-30T11:16:12.166Z,26.20
2019-04-30T11:20:10.032Z,22.90
2019-04-30T11:24:14.008Z,23.50
2019-04-30T11:28:18.957Z,23.97
2019-04-30T11:32:24.403Z,24.40
2019-04-30T11:36:29.186Z,24.77
2019-04-30T11:40:37.009Z,24.03
2019-04-30T11:44:40.329Z,24.67
2019-04-30T11:48:44.736Z,22.77
2019-04-30T11:52:48.975Z,22.23
2019-04-30T11:56:53.196Z,22.80
2019-04-30T12:00:59.223Z,23.77
2019-04-30T12:05:05.235Z,23.17
2019-04-30T12:09:32.571Z,21.23
2019-04-30T12:13:36.782Z,21.30
2019-04-30T12:17:41.092Z,22.10
2019-04-30T12:21:45.311Z,17.53
2019-04-30T12:25:49.521Z,16.83
2019-04-30T12:29:53.744Z,15.57
2019-04-30T12:33:57.971Z,14.43
2019-04-30T12:38:02.214Z,14.73
2019-04-30T12:42:06.452Z,14.17
2019-04-30T12:46:10.736Z,13.43
2019-04-30T12:50:23.232Z,13.77
2019-04-30T12:54:36.251Z,12.67
2019-04-30T12:58:40.634Z,14.40
2019-04-30T13:02:44.847Z,14.30
2019-04-30T13:06:49.712Z,13.97
2019-04-30T13:10:54.761Z,13.03
2019-04-30T13:14:59.493Z,13.40
2019-04-30T13:19:03.714Z,12.93
2019-04-30T13:23:08.737Z,12.33
2019-04-30T13:27:13.035Z,12.10
2019-04-30T13:31:19.253Z,12.13
2019-04-30T13:35:23.272Z,12.80
2019-04-30T13:39:32.799Z,12.90
2019-04-30T13:43:55.059Z,12.20
2019-04-30T13:47:59.384Z,13.67
2019-04-30T14:15:54.835Z,13.50
2019-04-30T14:19:59.360Z,12.97
2019-04-30T14:24:03.607Z,12.77
2019-04-30T14:28:09.456Z,13.70
2019-04-30T14:32:13.834Z,13.73
2019-04-30T14:36:19.419Z,13.97
2019-04-30T14:40:24.299Z,14.93
2019-04-30T14:44:31.888Z,15.20
2019-04-30T14:48:41.964Z,14.10
2019-04-30T14:52:58.052Z,15.20
2019-04-30T14:57:06.651Z,14.77
2019-04-30T15:01:25.895Z,15.17
2019-04-30T15:05:39.030Z,14.60
2019-04-30T15:09:35.996Z,15.28
2019-04-30T15:13:40.220Z,15.00
2019-04-30T15:17:44.444Z,15.00
2019-04-30T15:21:48.753Z,15.20
2019-04-30T15:25:53.023Z,15.97
2019-04-30T15:29:57.474Z,16.90
2019-04-30T15:34:12.315Z,16.63
2019-04-30T15:38:16.611Z,15.57
2019-04-30T15:42:22.339Z,19.55
2019-04-30T15:46:26.612Z,18.13
2019-04-30T15:50:30.999Z,18.90
2019-04-30T15:54:35.639Z,19.10
2019-04-30T15:58:41.548Z,18.87
2019-04-30T16:02:57.297Z,18.67
2019-04-30T16:06:59.471Z,18.83
2019-04-30T16:11:25.522Z,18.35
2019-04-30T16:15:29.845Z,17.33
2019-04-30T16:19:34.133Z,17.02
2019-04-30T16:23:38.664Z,17.30
2019-04-30T16:27:43.127Z,17.30
2019-04-30T16:31:49.453Z,17.15
2019-04-30T16:35:54.902Z,17.00
2019-04-30T16:39:59.141Z,17.27
2019-04-30T16:44:03.354Z,18.23
2019-04-30T16:48:07.575Z,18.23
2019-04-30T16:52:11.795Z,20.43
2019-04-30T16:56:16.023Z,17.57
2019-04-30T17:00:20.726Z,17.40
2019-04-30T17:04:33.615Z,18.60
2019-04-30T17:08:46.415Z,17.27
2019-04-30T17:13:04.304Z,16.37
2019-04-30T17:17:08.523Z,16.40
2019-04-30T17:21:13.210Z,17.07
2019-04-30T17:25:17.450Z,16.10
2019-04-30T17:29:21.823Z,15.17
2019-04-30T17:33:26.138Z,16.63
2019-04-30T17:37:31.563Z,15.83
2019-04-30T17:41:35.959Z,17.40
2019-04-30T17:45:40.187Z,16.77
2019-04-30T17:49:44.393Z,17.33
2019-04-30T17:54:06.351Z,17.80
2019-04-30T17:58:10.727Z,17.50
2019-04-30T18:02:16.583Z,17.97
2019-04-30T18:06:20.808Z,17.40
2019-04-30T18:10:25.247Z,17.33
2019-04-30T18:14:29.485Z,17.07
2019-04-30T18:18:55.812Z,18.40
2019-04-30T18:23:19.805Z,17.93
2019-04-30T18:27:29.343Z,16.50
2019-04-30T18:31:33.316Z,17.33
2019-04-30T18:35:38.821Z,17.37
2019-04-30T18:39:43.187Z,17.20
2019-04-30T18:43:48.725Z,17.07
2019-04-30T18:47:53.099Z,17.07
2019-04-30T18:51:59.027Z,16.63
2019-04-30T18:56:03.381Z,16.23
2019-04-30T19:00:09.969Z,16.30
2019-04-30T19:04:14.202Z,16.30
2019-04-30T19:08:40.260Z,15.37
2019-04-30T19:12:51.649Z,15.87
2019-04-30T19:17:24.026Z,16.07
2019-04-30T19:21:28.457Z,15.63
2019-04-30T19:25:32.673Z,13.63
2019-04-30T19:29:36.904Z,13.07
2019-04-30T19:33:41.159Z,11.87
2019-04-30T19:37:45.404Z,12.10
2019-04-30T19:41:49.627Z,12.53
2019-04-30T19:45:53.857Z,11.60
2019-04-30T19:49:59.472Z,12.07
2019-04-30T19:54:03.802Z,12.23
2019-04-30T19:58:08.028Z,12.53
2019-04-30T20:02:12.273Z,12.23
2019-04-30T20:06:16.546Z,12.17
2019-04-30T20:10:20.911Z,12.33
2019-04-30T20:14:25.463Z,12.93
2019-04-30T20:18:29.698Z,13.53
2019-04-30T20:22:34.057Z,12.93
2019-04-30T20:26:38.276Z,13.80
2019-04-30T20:30:42.692Z,15.03
2019-04-30T20:34:48.828Z,14.27
2019-04-30T20:39:18.039Z,15.13
2019-04-30T20:43:22.339Z,15.37
2019-04-30T20:47:26.550Z,15.00
2019-04-30T20:51:30.817Z,15.30
2019-04-30T20:55:35.146Z,15.17
2019-04-30T20:59:39.413Z,14.60
2019-04-30T21:03:43.741Z,15.67
2019-04-30T21:07:48.095Z,15.30
2019-04-30T21:11:52.424Z,14.23
2019-04-30T21:15:56.776Z,15.23
2019-04-30T21:20:01.140Z,15.27
2019-04-30T21:24:05.449Z,16.10
2019-04-30T21:28:09.826Z,15.90
2019-04-30T21:32:23.014Z,15.43
2019-04-30T21:36:28.505Z,19.73
2019-04-30T21:40:32.863Z,19.23
2019-04-30T21:44:37.273Z,21.47
2019-04-30T21:48:41.474Z,21.30
2019-04-30T21:52:45.679Z,22.97
2019-04-30T21:56:49.973Z,21.53
2019-04-30T22:01:16.843Z,22.10
2019-04-30T22:05:21.127Z,20.07
2019-04-30T22:09:25.487Z,22.43
2019-04-30T22:13:29.758Z,24.70
2019-04-30T22:17:33.982Z,27.33
2019-04-30T22:21:39.600Z,25.70
2019-04-30T22:25:43.367Z,27.97
2019-04-30T22:29:47.594Z,25.90
2019-04-30T22:33:51.787Z,26.90
2019-04-30T22:37:59.252Z,29.30
2019-04-30T22:42:32.414Z,28.67
2019-04-30T22:46:36.710Z,27.40
2019-04-30T22:50:41.006Z,26.57
2019-04-30T22:54:44.831Z,26.70
2019-04-30T22:58:49.115Z,30.70
2019-04-30T23:02:57.534Z,31.63
2019-04-30T23:07:01.739Z,31.43
2019-04-30T23:11:06.056Z,28.07
2019-04-30T23:15:10.471Z,28.70
2019-04-30T23:19:14.666Z,29.53
2019-04-30T23:23:18.999Z,29.80
2019-04-30T23:27:23.324Z,28.60
2019-04-30T23:31:27.539Z,29.73
2019-04-30T23:35:31.755Z,31.60
2019-04-30T23:39:36.020Z,33.17
2019-04-30T23:43:40.198Z,34.43
2019-04-30T23:47:44.446Z,33.00
2019-04-30T23:51:50.631Z,31.97
2019-04-30T23:55:54.635Z,33.63
2019-04-30T23:59:58.856Z,36.30
